Date,TemperatureHighF,TemperatureAvgF,TemperatureLowF,DewpointHighF,DewpointAvgF,DewpointLowF,HumidityHigh,HumidityAvg,HumidityLow,PressureMaxIn,PressureMinIn,WindSpeedMaxMPH,WindSpeedAvgMPH,GustSpeedMaxMPH,PrecipitationSumIn
2013-8-1,92.8,70.6,0.0,59.7,55.5,38.2,89,62,15,30.11,29.77,13,2,19,0.00
2013-8-2,94.5,76.9,60.3,57.8,51.8,45.3,79,46,19,30.26,29.93,12,3,15,0.00
2013-8-3,91.8,73.5,60.8,61.9,56.8,48.1,98,60,23,30.33,29.92,16,3,19,0.51
2013-8-4,88.2,72.7,56.8,61.0,55.0,47.3,93,58,25,30.44,30.00,10,2,13,0.02
2013-8-5,87.6,73.9,59.2,62.0,53.7,47.2,82,52,26,30.31,29.94,8,2,13,0.00
2013-8-6,90.0,73.9,59.2,59.1,50.6,43.1,79,47,21,30.29,29.91,14,4,24,0.00
2013-8-7,76.1,67.4,0.0,58.4,53.8,48.7,82,61,44,30.25,29.76,9,2,13,0.00
2013-8-8,77.4,65.3,58.6,61.1,57.4,48.7,99,78,50,30.00,29.78,11,2,15,0.00
2013-8-9,80.8,65.4,53.1,57.5,51.6,44.5,91,64,28,30.19,29.90,11,3,17,0.00
2013-8-10,88.5,69.5,51.4,53.4,49.1,40.8,91,54,21,30.11,29.73,14,2,27,0.00
2013-8-11,82.4,71.1,59.7,59.9,51.2,43.4,76,51,26,30.01,29.78,19,2,19,0.05
2013-8-12,82.4,68.3,56.7,60.0,54.1,49.8,99,64,33,30.10,29.79,12,2,14,0.25
2013-8-13,80.4,67.1,53.6,59.1,53.2,47.9,99,65,32,30.19,29.86,16,3,17,0.02
2013-8-14,84.6,68.4,54.3,58.1,52.0,43.8,95,60,25,30.13,29.76,8,2,11,0.00
2013-8-15,86.9,70.3,52.9,54.3,48.1,39.5,78,49,20,30.09,29.71,8,2,11,0.00
2013-8-16,92.7,74.3,54.5,54.1,45.3,32.5,82,43,13,30.03,29.61,7,2,10,0.00
2013-8-17,96.6,77.9,55.8,52.5,44.2,30.5,81,38,12,29.94,29.48,7,1,10,0.00
2013-8-18,93.9,77.8,60.3,57.4,47.2,36.6,83,39,14,29.94,29.61,11,2,14,0.00
2013-8-19,96.1,79.2,57.7,56.3,46.0,36.5,76,36,13,29.96,29.46,12,2,12,0.00
2013-8-20,97.3,82.6,64.4,90.2,43.3,35.9,97,28,12,29.98,29.40,11,3,14,0.00
2013-8-21,91.6,77.3,65.7,57.5,50.3,43.1,65,41,22,29.97,29.55,11,2,19,0.00
2013-8-22,84.0,70.8,61.9,65.7,59.7,53.1,92,69,45,30.05,29.70,25,3,25,0.12
2013-8-23,88.7,71.8,62.1,62.9,58.3,50.8,94,66,29,30.01,29.57,14,3,18,0.11
2013-8-24,85.5,71.3,56.1,61.6,56.2,52.9,95,62,34,30.05,29.70,18,2,20,0.03
2013-8-25,91.0,75.5,63.3,59.5,55.0,47.7,74,52,23,29.99,29.62,15,2,17,0.00
2013-8-26,92.7,76.6,61.2,62.0,57.1,51.4,87,55,27,29.95,29.59,14,2,14,0.00
2013-8-27,91.9,77.6,61.5,61.3,57.0,51.3,86,53,26,29.95,29.51,10,2,14,0.00
2013-8-28,94.6,78.0,61.0,60.1,55.3,45.9,84,50,20,29.91,29.53,11,1,11,0.00
2013-8-29,95.4,78.5,61.7,57.4,52.0,46.5,74,44,19,29.92,29.58,18,2,20,0.00
2013-8-30,90.7,76.0,67.6,61.8,55.9,50.1,72,51,25,30.04,29.69,11,2,24,0.08
2013-8-31,90.7,76.8,65.7,59.5,53.1,45.1,69,46,21,29.99,29.61,12,3,15,0.00